Weather at Gjerstad Gård Airstrip

Public forecast

Using degrees Celsius for public forecast. Weather courtesy of forecast.io.

Closest aviation weather report (METAR) to Gjerstad Gård Airstrip

Closest report is Oslo Gardermoen Airport, 19.8 nm (36.6 km) W. Retrieved 2021/04/12 21:20 UTC (36 minutes ago):

ENGM 122120Z 36012KT 6000 2800E -SN SCT013 BKN043 00/M01 Q1013

Closest aviation forecast (TAF) to Gjerstad Gård Airstrip

Closest forecast is Oslo Gardermoen Airport, 19.8 nm (36.6 km) W. Retrieved 2021/04/12 18:57 UTC (3 hours ago):

TAF ENGM 121700Z 1218/1318 36008KT 9000 -SNRA BKN020 TEMPO 1218/1303 1400 -SHSN BR BKN008 FEW020CB